The Official Home Page Of The Professional Rodeo Cowboys Association PRCA RAM WORLD STANDINGS
ProRodeoTv.Com



Official Gear Of The PRCA

PRCA Stock Statistics

SEARCH BY:
Stock Rodeo Contestant Stock Contractor

Will Martin

EVENT:
Unofficial results reflect placement at time of Web posting and can change.

SEASON BREAKDOWN

Season Attempts Qual Rides Re-rides Ride %
2018 39 38 0 97.44 %
2017 32 25 0 78.13 %
2016 27 19 0 70.37 %
2015 14 11 0 78.57 %
Totals 112 93 0 0.00 %

RODEO DETAIL

Date Location Rodeo SC Brand Ride Comments Stock Score Contestant Score
8/17/2018 Coffeyville, KS Inter-State Rodeo NF 5X 72.50 17.00 / 18.00 18.00 / 19.50
8/11/2018 Kimball, NE Kimball - Banner Fair and Rodeo CB W75 67.00 18.00 / 16.00 15.00 / 18.00
8/10/2018 Lamar, CO Sand & Sage Roundup SR 791 73.00 16.00 / 19.00 19.00 / 19.00
8/9/2018 Sterling, CO Dick Stull Memorial Rodeo CB W40 72.00 18.00 / 17.00 19.00 / 18.00
8/8/2018 Yuma, CO Yuma County Fair & Rodeo CB W29 66.00 20.00 / 18.00 14.00 / 14.00
8/5/2018 Dodge City, KS Dodge City Roundup Rodeo FR 08 83.00 19.50 / 20.50 21.50 / 21.50
8/4/2018 Dalhart, TX XIT Rodeo & Reunion FR 79 82.00 21.00 / 23.00 17.00 / 21.00
8/3/2018 Phillipsburg, KS Kansas Biggest Rodeo BU 156 75.00 18.00 / 19.00 17.00 / 21.00
8/2/2018 Abilene, KS Wild Bill Hickok Rodeo AN 485 76.00 19.00 / 20.00 19.00 / 18.00
8/1/2018 Dodge City, KS Dodge City Roundup Rodeo HV D38 78.00 19.00 / 19.00 20.00 / 20.00
7/28/2018 Manhattan, KS Kaw Valley Rodeo RH 44 71.00 18.00 / 17.00 19.00 / 17.00
7/27/2018 Burwell, NE Nebraska s Big Rodeo BU 406 67.50 19.50 / 20.00 18.00 / 10.00
7/25/2018 Eagle, CO Eagle County Fair & Rodeo CR C31 78.00 21.00 / 22.00 17.00 / 18.00
7/24/2018 Cheyenne, WY Cheyenne Frontier Days BR 903 73.00 18.00 / 19.00 18.50 / 17.50
7/23/2018 Cheyenne, WY Cheyenne Frontier Days HL 086 0.00 21.00 / 22.00 0.00 / 0.00
7/19/2018 Pretty Prairie, KS Kansas Largest Night Rodeo BU 22 59.00 19.00 / 19.00 11.00 / 10.00
7/7/2018 Isanti, MN 42nd Annual Isanti Firefighters Rodeo DB 416 74.00 19.00 / 19.00 21.00 / 15.00
7/6/2018 Spooner, WI Heart Of The North Rodeo UR 70 66.00 17.00 / 18.00 16.00 / 15.00
7/5/2018 Hamel, MN Hamel Rodeo & Bull Ridin Bonanza JB 107 85.50 21.00 / 21.00 21.50 / 22.00
7/4/2018 Killdeer, ND Killdeer Mountain Roundup Rodeo JB L70 82.00 19.00 / 20.00 20.00 / 23.00
7/3/2018 Mandan, ND Mandan Rodeo Days SS 513 78.00 18.50 / 18.00 20.50 / 21.00
6/30/2018 Galena, IL Shenandoah Pro Rodeo TH 03 80.00 19.00 / 21.00 19.00 / 21.00
6/29/2018 Manawa, WI Mid-Western Rodeo TH F17 78.50 20.50 / 18.00 19.50 / 20.50
6/23/2018 Buffalo, MN Buffalo Championship PRCA Rodeo BA 6S3 78.00 22.00 / 20.00 18.00 / 18.00
6/22/2018 Edgewood, IA Edgewood Days PRCA Rodeo TH J23 78.00 19.00 / 21.00 18.00 / 20.00
Page of 2
Per Page
 
 
 
PRCA National Sponsors
MGM Grand Polaris Ranger American Quarter Horse Association Cinch Jeans
Copyright © 2018 Professional Rodeo Cowboys Association. All rights reserved. No portion of ProRodeo.com may be duplicated, redistributed or manipulated in any form. By accessing any information beyond this page, you agree to abide by the Terms of Use.
PRCA Wrangler National Finals Rodeo Wrangler ProRodeo Tour Finale Presented by Justin Boots Xtreme Bulls RAM National Circuit Finals Rodeo ProRodeo Gear ProRodeo Tour